Time;durP1;ratioP1;P1;durP2;ratioP2;P2;SDS_P1;SDS_P2;PMS_P1;PMS_P2;Temp;Humidity;BMP_temperature;BMP_pressure;BME280_temperature;BME280_humidity;BME280_pressure;Samples;Min_cycle;Max_cycle;Signal;HPM_P1;HPM_P2
2023/06/12 00:01:31;;;;;;;;;;;25.00;38.20;;;;;;4998082;28;19921;-62
2023/06/12 00:04:00;;;;;;;;;;;24.90;38.20;;;;;;4994692;28;19922;-62
2023/06/12 00:06:28;;;;;;;;;;;24.90;38.40;;;;;;5003363;28;19960;-59
2023/06/12 00:08:54;;;;;;;;;;;24.80;38.30;;;;;;5010455;28;19921;-59
2023/06/12 00:11:21;;;;;;;;;;;24.80;38.40;;;;;;5001270;28;19921;-61
2023/06/12 00:13:48;;;;;;;;;;;24.70;38.40;;;;;;5004676;28;19921;-60
2023/06/12 00:16:15;;;;;;;;;;;24.70;38.50;;;;;;4999673;28;20355;-60
2023/06/12 00:18:42;;;;;;;;;;;24.60;38.40;;;;;;5000569;28;19961;-60
2023/06/12 00:21:11;;;;;;;;;;;24.60;38.40;;;;;;5002808;28;19921;-61
2023/06/12 00:23:38;;;;;;;;;;;24.50;38.50;;;;;;5009854;28;19929;-61
2023/06/12 00:26:05;;;;;;;;;;;24.50;38.50;;;;;;5003379;28;19930;-61
2023/06/12 00:28:31;;;;;;;;;;;24.40;38.70;;;;;;5008467;28;19972;-60
2023/06/12 00:30:58;;;;;;;;;;;24.40;38.70;;;;;;5005888;28;19926;-61
2023/06/12 00:33:27;;;;;;;;;;;24.40;38.70;;;;;;5007454;28;22132;-61
2023/06/12 00:35:54;;;;;;;;;;;24.30;38.70;;;;;;5004277;28;19928;-60
2023/06/12 00:38:22;;;;;;;;;;;24.30;38.70;;;;;;5012427;28;19921;-61
2023/06/12 00:40:49;;;;;;;;;;;24.30;38.70;;;;;;5008508;28;19976;-59
2023/06/12 00:43:16;;;;;;;;;;;24.20;38.60;;;;;;5000742;28;19961;-60
2023/06/12 00:45:43;;;;;;;;;;;24.20;38.70;;;;;;5008241;28;19922;-60
2023/06/12 00:48:10;;;;;;;;;;;24.20;38.70;;;;;;5006068;28;19921;-61
2023/06/12 00:50:37;;;;;;;;;;;24.10;38.70;;;;;;5005319;28;19921;-59
2023/06/12 00:53:04;;;;;;;;;;;24.10;38.60;;;;;;5026522;28;19925;-60
2023/06/12 00:55:32;;;;;;;;;;;24.10;38.70;;;;;;5003695;28;19952;-59
2023/06/12 00:57:59;;;;;;;;;;;24.00;38.60;;;;;;5005058;28;19921;-59
2023/06/12 01:00:27;;;;;;;;;;;24.00;38.70;;;;;;5009086;28;19922;-60
2023/06/12 01:02:54;;;;;;;;;;;24.00;38.70;;;;;;4996786;28;19991;-60
2023/06/12 01:05:22;;;;;;;;;;;24.00;38.80;;;;;;4995346;28;19936;-61
2023/06/12 01:07:51;;;;;;;;;;;24.00;38.80;;;;;;5010571;28;19922;-59
2023/06/12 01:10:19;;;;;;;;;;;23.90;38.90;;;;;;5002093;28;19976;-60
2023/06/12 01:12:47;;;;;;;;;;;23.90;38.90;;;;;;5003844;28;19961;-60
2023/06/12 01:15:14;;;;;;;;;;;23.90;39.00;;;;;;5003104;28;20434;-60
2023/06/12 01:17:41;;;;;;;;;;;23.80;39.00;;;;;;5014175;28;19921;-61
2023/06/12 01:20:10;;;;;;;;;;;23.80;39.00;;;;;;5027847;28;20371;-60
2023/06/12 01:22:38;;;;;;;;;;;23.80;39.10;;;;;;5005501;28;20020;-60
2023/06/12 01:25:21;;;;;;;;;;;23.80;39.10;;;;;;5005746;28;19934;-60
2023/06/12 01:27:53;;;;;;;;;;;23.80;39.20;;;;;;5012815;28;19976;-61
2023/06/12 01:30:28;;;;;;;;;;;23.80;39.30;;;;;;5002989;28;19972;-60
2023/06/12 01:32:57;;;;;;;;;;;23.70;39.20;;;;;;5018909;28;19925;-59
2023/06/12 01:35:23;;;;;;;;;;;23.70;39.20;;;;;;5003871;28;20368;-60
2023/06/12 01:37:52;;;;;;;;;;;23.70;39.20;;;;;;5003446;28;19948;-61
2023/06/12 01:40:18;;;;;;;;;;;23.70;39.30;;;;;;5000919;28;19976;-59
2023/06/12 01:42:45;;;;;;;;;;;23.70;39.30;;;;;;5002285;28;19925;-61
2023/06/12 01:45:12;;;;;;;;;;;23.60;39.30;;;;;;5009145;28;19934;-61
2023/06/12 01:47:41;;;;;;;;;;;23.60;39.30;;;;;;5008166;28;19925;-60
2023/06/12 01:50:10;;;;;;;;;;;23.60;39.30;;;;;;5008950;28;20026;-61
2023/06/12 01:52:38;;;;;;;;;;;23.60;39.40;;;;;;4989713;28;19926;-60
2023/06/12 01:55:05;;;;;;;;;;;23.60;39.40;;;;;;5002301;28;19922;-60
2023/06/12 01:57:32;;;;;;;;;;;23.60;39.50;;;;;;5018734;28;20279;-61
2023/06/12 01:59:59;;;;;;;;;;;23.60;39.60;;;;;;5008914;28;19928;-58
2023/06/12 02:02:26;;;;;;;;;;;23.50;39.60;;;;;;5011076;28;19960;-60
2023/06/12 02:04:53;;;;;;;;;;;23.50;39.60;;;;;;5011860;28;19933;-60
2023/06/12 02:07:21;;;;;;;;;;;23.50;39.60;;;;;;5003655;28;19929;-61
2023/06/12 02:09:48;;;;;;;;;;;23.50;39.70;;;;;;5003267;28;19929;-60
2023/06/12 02:12:14;;;;;;;;;;;23.50;39.70;;;;;;5003163;28;19969;-61
2023/06/12 02:14:42;;;;;;;;;;;23.50;39.70;;;;;;5008816;28;19928;-59
2023/06/12 02:17:09;;;;;;;;;;;23.50;39.80;;;;;;4983435;28;19972;-61
2023/06/12 02:19:36;;;;;;;;;;;23.50;39.80;;;;;;4991126;28;19985;-61
2023/06/12 02:22:03;;;;;;;;;;;23.50;39.80;;;;;;5008104;28;19921;-60
2023/06/12 02:24:31;;;;;;;;;;;23.50;39.90;;;;;;5002234;28;19980;-61
2023/06/12 02:26:58;;;;;;;;;;;23.40;39.80;;;;;;5004405;28;19921;-62
2023/06/12 02:29:25;;;;;;;;;;;23.40;39.80;;;;;;5001295;28;19930;-61
2023/06/12 02:31:52;;;;;;;;;;;23.40;39.80;;;;;;5003344;28;19948;-60
2023/06/12 02:34:19;;;;;;;;;;;23.40;39.90;;;;;;5007647;28;20418;-61
2023/06/12 02:36:48;;;;;;;;;;;23.40;40.00;;;;;;5007509;28;19929;-61
2023/06/12 02:39:15;;;;;;;;;;;23.40;40.10;;;;;;5009929;28;19929;-62
2023/06/12 02:41:45;;;;;;;;;;;23.30;40.00;;;;;;5010216;28;19921;-60
2023/06/12 02:44:11;;;;;;;;;;;23.30;40.00;;;;;;5001143;28;20003;-60
2023/06/12 02:46:49;;;;;;;;;;;23.30;40.00;;;;;;5002656;28;20124;-60
2023/06/12 02:49:16;;;;;;;;;;;23.30;40.10;;;;;;5011204;28;19922;-60
2023/06/12 02:51:43;;;;;;;;;;;23.30;40.10;;;;;;5009896;28;19921;-61
2023/06/12 02:54:10;;;;;;;;;;;23.30;40.10;;;;;;5001352;28;20399;-60
2023/06/12 02:56:37;;;;;;;;;;;23.30;40.20;;;;;;5025707;28;20407;-61
2023/06/12 02:59:05;;;;;;;;;;;23.30;40.20;;;;;;4999394;28;19922;-60
2023/06/12 03:01:32;;;;;;;;;;;23.30;40.30;;;;;;5003827;28;19957;-60
2023/06/12 03:03:59;;;;;;;;;;;23.30;40.30;;;;;;5008330;28;20339;-60
2023/06/12 03:06:28;;;;;;;;;;;23.30;40.30;;;;;;5007292;28;19929;-60
2023/06/12 03:08:55;;;;;;;;;;;23.30;40.40;;;;;;5001378;28;19996;-60
2023/06/12 03:11:22;;;;;;;;;;;23.30;40.40;;;;;;5005309;28;20299;-60
2023/06/12 03:13:49;;;;;;;;;;;23.20;40.30;;;;;;5009235;28;19921;-59
2023/06/12 03:16:20;;;;;;;;;;;23.20;40.40;;;;;;5001012;28;20177;-60
2023/06/12 03:18:47;;;;;;;;;;;23.20;40.40;;;;;;5008593;28;19922;-61
2023/06/12 03:21:14;;;;;;;;;;;23.20;40.40;;;;;;5008647;28;19922;-60
2023/06/12 03:23:41;;;;;;;;;;;23.20;40.50;;;;;;4994430;28;19922;-61
2023/06/12 03:26:08;;;;;;;;;;;23.20;40.50;;;;;;4991493;28;19973;-60
2023/06/12 03:28:35;;;;;;;;;;;23.20;40.60;;;;;;5009264;28;20368;-60
2023/06/12 03:31:01;;;;;;;;;;;23.20;40.50;;;;;;4998697;28;20024;-60
2023/06/12 03:33:30;;;;;;;;;;;23.20;40.60;;;;;;5009099;28;19925;-60
2023/06/12 03:35:58;;;;;;;;;;;23.20;40.60;;;;;;5000259;28;19933;-61
2023/06/12 03:38:25;;;;;;;;;;;23.20;40.60;;;;;;5008881;28;20020;-61
2023/06/12 03:40:52;;;;;;;;;;;23.10;40.50;;;;;;5007090;28;19921;-59
2023/06/12 03:43:19;;;;;;;;;;;23.10;40.50;;;;;;5008578;28;19928;-61
2023/06/12 03:45:45;;;;;;;;;;;23.10;40.50;;;;;;5008504;28;19929;-59
2023/06/12 03:48:12;;;;;;;;;;;23.10;40.60;;;;;;5024501;28;19925;-58
2023/06/12 03:50:41;;;;;;;;;;;23.10;40.60;;;;;;5005030;28;19921;-59
2023/06/12 03:53:07;;;;;;;;;;;23.10;40.60;;;;;;5001707;28;19925;-60
2023/06/12 03:55:35;;;;;;;;;;;23.10;40.60;;;;;;5000484;28;19976;-61
2023/06/12 03:58:02;;;;;;;;;;;23.10;40.60;;;;;;5002413;28;20319;-60
2023/06/12 04:00:29;;;;;;;;;;;23.10;40.70;;;;;;5003936;28;19923;-61
2023/06/12 04:02:57;;;;;;;;;;;23.10;40.70;;;;;;5016898;28;19932;-60
2023/06/12 04:05:23;;;;;;;;;;;23.10;40.80;;;;;;4996484;28;19925;-59
2023/06/12 04:07:52;;;;;;;;;;;23.10;40.70;;;;;;5021460;28;19925;-61
2023/06/12 04:10:18;;;;;;;;;;;23.10;40.80;;;;;;4999830;28;19921;-59
2023/06/12 04:12:45;;;;;;;;;;;23.00;40.70;;;;;;5009657;28;19987;-61
2023/06/12 04:15:12;;;;;;;;;;;23.10;40.80;;;;;;5005114;28;19976;-60
2023/06/12 04:17:39;;;;;;;;;;;23.10;40.80;;;;;;4996758;28;19921;-61
2023/06/12 04:20:07;;;;;;;;;;;23.00;40.70;;;;;;5009882;28;19929;-61
2023/06/12 04:22:33;;;;;;;;;;;23.00;40.70;;;;;;5006224;28;19963;-61
2023/06/12 04:25:05;;;;;;;;;;;23.00;40.80;;;;;;5008169;28;19925;-60
2023/06/12 04:27:33;;;;;;;;;;;23.00;40.80;;;;;;4996269;28;20331;-59
2023/06/12 04:29:59;;;;;;;;;;;23.00;40.80;;;;;;4999872;28;19922;-59
2023/06/12 04:32:29;;;;;;;;;;;23.00;40.80;;;;;;5001508;28;19925;-61
2023/06/12 04:34:56;;;;;;;;;;;23.00;40.80;;;;;;4999694;28;19983;-60
2023/06/12 04:37:23;;;;;;;;;;;23.00;40.80;;;;;;4994263;28;19944;-59
2023/06/12 04:39:50;;;;;;;;;;;23.00;40.90;;;;;;4992888;28;19922;-60
2023/06/12 04:42:18;;;;;;;;;;;23.00;40.90;;;;;;5000150;28;19921;-59
2023/06/12 04:44:46;;;;;;;;;;;23.00;40.90;;;;;;5000684;28;19987;-60
2023/06/12 04:47:14;;;;;;;;;;;23.00;40.90;;;;;;5024999;28;19980;-60
2023/06/12 04:49:43;;;;;;;;;;;23.00;40.90;;;;;;4995730;28;19993;-60
2023/06/12 04:52:12;;;;;;;;;;;23.00;40.90;;;;;;5005971;28;19928;-60
2023/06/12 04:54:41;;;;;;;;;;;23.00;41.50;;;;;;5001396;28;19967;-60
2023/06/12 04:57:08;;;;;;;;;;;23.00;40.90;;;;;;5001245;28;19984;-60
2023/06/12 04:59:38;;;;;;;;;;;23.00;41.00;;;;;;5006318;28;19932;-61
2023/06/12 05:02:06;;;;;;;;;;;23.00;41.00;;;;;;5021462;28;19956;-60
2023/06/12 05:04:35;;;;;;;;;;;22.90;41.00;;;;;;5005927;28;19922;-60
2023/06/12 05:07:04;;;;;;;;;;;22.90;40.90;;;;;;5002888;28;19921;-60
2023/06/12 05:09:31;;;;;;;;;;;22.90;41.00;;;;;;4999917;28;19928;-61
2023/06/12 05:12:00;;;;;;;;;;;22.90;41.00;;;;;;5002565;28;20332;-61
2023/06/12 05:14:27;;;;;;;;;;;22.90;41.00;;;;;;5002109;28;19926;-60
2023/06/12 05:16:57;;;;;;;;;;;22.90;41.00;;;;;;5021113;28;19925;-61
2023/06/12 05:19:25;;;;;;;;;;;22.90;41.00;;;;;;4997248;28;19922;-62
2023/06/12 05:21:52;;;;;;;;;;;22.90;41.00;;;;;;4996551;28;19949;-60
2023/06/12 05:24:19;;;;;;;;;;;22.90;41.10;;;;;;5011076;28;19969;-61
2023/06/12 05:26:46;;;;;;;;;;;22.90;41.00;;;;;;5008207;28;20008;-61
2023/06/12 05:29:13;;;;;;;;;;;22.90;41.10;;;;;;5010406;28;19921;-61
2023/06/12 05:31:39;;;;;;;;;;;22.90;41.10;;;;;;5011880;28;19926;-62
2023/06/12 05:34:08;;;;;;;;;;;22.90;41.10;;;;;;5006006;28;19921;-61
2023/06/12 05:36:35;;;;;;;;;;;22.90;41.20;;;;;;5003986;28;19922;-61
2023/06/12 05:39:02;;;;;;;;;;;22.90;41.20;;;;;;5021950;28;19981;-60
2023/06/12 05:41:29;;;;;;;;;;;22.90;41.20;;;;;;5006054;28;20299;-60
2023/06/12 05:43:56;;;;;;;;;;;22.90;41.20;;;;;;5006202;28;19972;-60
2023/06/12 05:46:23;;;;;;;;;;;22.90;41.20;;;;;;5006944;28;19929;-61
2023/06/12 05:48:49;;;;;;;;;;;22.90;41.20;;;;;;5004215;28;19921;-61
2023/06/12 05:51:18;;;;;;;;;;;22.90;41.20;;;;;;5005349;28;20012;-61
2023/06/12 05:53:44;;;;;;;;;;;22.90;41.20;;;;;;5005836;28;20319;-62
2023/06/12 05:56:12;;;;;;;;;;;22.90;41.20;;;;;;5008376;28;20032;-60
2023/06/12 05:58:39;;;;;;;;;;;22.90;41.20;;;;;;5004767;28;19987;-60
2023/06/12 06:01:09;;;;;;;;;;;22.90;41.20;;;;;;5009963;28;19980;-60
2023/06/12 06:03:35;;;;;;;;;;;22.90;41.20;;;;;;5004862;28;19944;-60
2023/06/12 06:06:02;;;;;;;;;;;22.90;41.20;;;;;;5007296;28;19929;-59
2023/06/12 06:08:31;;;;;;;;;;;22.90;41.20;;;;;;5007665;28;19972;-60
2023/06/12 06:10:58;;;;;;;;;;;22.90;41.20;;;;;;5003867;28;20303;-61
2023/06/12 06:13:24;;;;;;;;;;;22.90;41.30;;;;;;5026586;28;19961;-60
2023/06/12 06:15:52;;;;;;;;;;;22.90;41.20;;;;;;5007015;28;19928;-61
2023/06/12 06:18:18;;;;;;;;;;;22.90;41.30;;;;;;5005993;28;19991;-60
2023/06/12 06:20:45;;;;;;;;;;;22.90;41.90;;;;;;5003472;28;19922;-60
2023/06/12 06:23:12;;;;;;;;;;;22.90;41.30;;;;;;5004989;28;19975;-61
2023/06/12 06:25:40;;;;;;;;;;;22.90;41.20;;;;;;5007410;28;19925;-60
2023/06/12 06:28:07;;;;;;;;;;;22.90;41.20;;;;;;5004156;28;19977;-58
2023/06/12 06:30:34;;;;;;;;;;;22.90;41.10;;;;;;5003308;28;19921;-62
2023/06/12 06:33:01;;;;;;;;;;;22.90;41.20;;;;;;5004493;28;19922;-59
2023/06/12 06:35:28;;;;;;;;;;;22.90;41.20;;;;;;5006210;28;19929;-60
2023/06/12 06:37:55;;;;;;;;;;;22.90;41.10;;;;;;5002217;28;19922;-58
2023/06/12 06:40:22;;;;;;;;;;;22.90;41.00;;;;;;5005837;28;20108;-62
2023/06/12 06:42:52;;;;;;;;;;;22.90;41.00;;;;;;5000039;28;19957;-59
2023/06/12 06:45:19;;;;;;;;;;;22.90;40.90;;;;;;4999535;28;19992;-62
2023/06/12 06:47:46;;;;;;;;;;;22.90;40.90;;;;;;5008594;28;20372;-61
2023/06/12 06:50:13;;;;;;;;;;;22.90;40.90;;;;;;5020884;28;19929;-61
2023/06/12 06:52:40;;;;;;;;;;;22.90;40.90;;;;;;5006882;28;19928;-57
2023/06/12 06:55:07;;;;;;;;;;;22.90;40.90;;;;;;5019660;28;20016;-62
2023/06/12 06:57:36;;;;;;;;;;;22.90;40.80;;;;;;5003159;28;19921;-60
2023/06/12 07:00:06;;;;;;;;;;;22.90;40.90;;;;;;5003980;28;20439;-60
2023/06/12 07:02:33;;;;;;;;;;;22.90;40.80;;;;;;5010457;28;19921;-63
2023/06/12 07:04:59;;;;;;;;;;;22.90;40.80;;;;;;5004075;28;19926;-63
2023/06/12 07:07:26;;;;;;;;;;;23.00;40.90;;;;;;5010181;28;19975;-63
2023/06/12 07:09:53;;;;;;;;;;;23.00;40.80;;;;;;5010675;28;19922;-64
2023/06/12 07:12:20;;;;;;;;;;;23.00;40.80;;;;;;5005597;28;19921;-62
2023/06/12 07:14:47;;;;;;;;;;;23.00;40.90;;;;;;5011770;28;19929;-62
2023/06/12 07:17:15;;;;;;;;;;;23.00;41.30;;;;;;5009434;28;19979;-60
2023/06/12 07:19:42;;;;;;;;;;;23.00;41.30;;;;;;5007654;28;19921;-62
2023/06/12 07:22:09;;;;;;;;;;;23.00;41.40;;;;;;5009874;28;19930;-60
2023/06/12 07:24:36;;;;;;;;;;;23.00;41.40;;;;;;5009348;28;20323;-62
2023/06/12 07:27:03;;;;;;;;;;;23.00;41.30;;;;;;5005680;28;19926;-58
2023/06/12 07:29:30;;;;;;;;;;;23.00;41.20;;;;;;5008953;28;19952;-61
2023/06/12 07:31:56;;;;;;;;;;;23.00;41.20;;;;;;5010622;28;19925;-59
2023/06/12 07:34:25;;;;;;;;;;;23.00;41.10;;;;;;4997960;28;19929;-62
2023/06/12 07:36:52;;;;;;;;;;;23.00;41.10;;;;;;5011696;28;20281;-62
2023/06/12 07:39:19;;;;;;;;;;;23.00;41.10;;;;;;5007395;28;19948;-62
2023/06/12 07:41:45;;;;;;;;;;;23.00;41.10;;;;;;5009541;28;19939;-62
2023/06/12 07:44:12;;;;;;;;;;;23.00;41.10;;;;;;5006718;28;19976;-62
2023/06/12 07:46:39;;;;;;;;;;;23.10;41.20;;;;;;5012093;28;19975;-63
2023/06/12 07:49:06;;;;;;;;;;;23.10;41.20;;;;;;5009838;28;19967;-61
2023/06/12 07:51:34;;;;;;;;;;;23.10;41.20;;;;;;5010209;28;19972;-62
2023/06/12 07:54:00;;;;;;;;;;;23.10;41.20;;;;;;5023737;28;19926;-60
2023/06/12 07:56:28;;;;;;;;;;;23.10;41.30;;;;;;5010678;28;19922;-61
2023/06/12 07:58:54;;;;;;;;;;;23.10;41.20;;;;;;5005340;28;19928;-62
2023/06/12 08:01:22;;;;;;;;;;;23.10;41.30;;;;;;5008675;28;19944;-61
2023/06/12 08:03:49;;;;;;;;;;;23.10;41.30;;;;;;5003665;28;19945;-61
2023/06/12 08:06:16;;;;;;;;;;;23.10;41.30;;;;;;5027881;28;19925;-61
2023/06/12 08:08:44;;;;;;;;;;;23.20;41.30;;;;;;5007594;28;19922;-62
2023/06/12 08:11:11;;;;;;;;;;;23.20;41.40;;;;;;5004164;28;19983;-62
2023/06/12 08:13:38;;;;;;;;;;;23.20;41.40;;;;;;5006161;28;19957;-61
2023/06/12 08:16:05;;;;;;;;;;;23.20;41.40;;;;;;5011890;28;19925;-62
2023/06/12 08:18:32;;;;;;;;;;;23.20;41.40;;;;;;5007810;28;20004;-62
2023/06/12 08:20:59;;;;;;;;;;;23.20;41.40;;;;;;5004009;28;20330;-61
2023/06/12 08:23:26;;;;;;;;;;;23.20;41.40;;;;;;5010358;28;19920;-59
2023/06/12 08:25:54;;;;;;;;;;;23.20;41.40;;;;;;5006367;28;19940;-60
2023/06/12 08:28:20;;;;;;;;;;;23.20;42.00;;;;;;5008452;28;19964;-61
2023/06/12 08:30:47;;;;;;;;;;;23.20;41.40;;;;;;5007526;28;19972;-62
2023/06/12 08:33:15;;;;;;;;;;;23.20;41.50;;;;;;5009316;28;19925;-63
2023/06/12 08:35:42;;;;;;;;;;;23.30;41.60;;;;;;5009337;28;20000;-61
2023/06/12 08:38:09;;;;;;;;;;;23.30;41.60;;;;;;5027365;28;19925;-59
2023/06/12 08:40:36;;;;;;;;;;;23.30;41.60;;;;;;5006702;28;19922;-60
2023/06/12 08:43:04;;;;;;;;;;;23.30;41.60;;;;;;5006631;28;19976;-59
2023/06/12 08:45:30;;;;;;;;;;;23.30;41.60;;;;;;5007413;28;20386;-59
2023/06/12 08:47:58;;;;;;;;;;;23.30;41.60;;;;;;5010974;28;19921;-61
2023/06/12 08:50:25;;;;;;;;;;;23.30;41.60;;;;;;5006704;28;19995;-62
2023/06/12 08:52:51;;;;;;;;;;;23.30;41.60;;;;;;5011759;28;19925;-61
2023/06/12 08:55:18;;;;;;;;;;;23.30;41.60;;;;;;5004987;28;19967;-62
2023/06/12 08:57:45;;;;;;;;;;;23.30;41.60;;;;;;5013768;28;19922;-60
2023/06/12 09:00:15;;;;;;;;;;;23.30;41.60;;;;;;5014202;28;19933;-61
2023/06/12 09:02:43;;;;;;;;;;;23.40;41.70;;;;;;5014454;28;19972;-61
2023/06/12 09:05:11;;;;;;;;;;;23.40;41.60;;;;;;5003465;28;19925;-62
2023/06/12 09:07:38;;;;;;;;;;;23.40;41.70;;;;;;5012050;28;20018;-61
2023/06/12 09:10:06;;;;;;;;;;;23.40;41.60;;;;;;5030260;28;19932;-62
2023/06/12 09:12:32;;;;;;;;;;;23.40;41.60;;;;;;5011740;28;19928;-63
2023/06/12 09:15:01;;;;;;;;;;;23.40;41.60;;;;;;5007870;28;19921;-63
2023/06/12 09:17:29;;;;;;;;;;;23.40;41.50;;;;;;5029424;28;19922;-62
2023/06/12 09:19:56;;;;;;;;;;;23.40;41.50;;;;;;5004553;28;19922;-61
2023/06/12 09:22:23;;;;;;;;;;;23.40;41.40;;;;;;5018006;28;19922;-60
2023/06/12 09:24:51;;;;;;;;;;;23.40;41.30;;;;;;5012337;28;19947;-60
2023/06/12 09:27:20;;;;;;;;;;;23.40;41.30;;;;;;5005117;28;19929;-62
2023/06/12 09:29:47;;;;;;;;;;;23.40;41.20;;;;;;5024911;28;19975;-61
2023/06/12 09:32:15;;;;;;;;;;;23.40;41.10;;;;;;5008504;28;19922;-61
2023/06/12 09:34:44;;;;;;;;;;;23.40;41.00;;;;;;5015628;28;19925;-62
2023/06/12 09:37:12;;;;;;;;;;;23.40;40.90;;;;;;5023897;28;20015;-60
2023/06/12 09:39:39;;;;;;;;;;;23.40;40.90;;;;;;5004255;28;19922;-60
2023/06/12 09:42:06;;;;;;;;;;;23.40;40.90;;;;;;5012008;28;20020;-59
2023/06/12 09:44:33;;;;;;;;;;;23.40;40.80;;;;;;5014660;28;19932;-63
2023/06/12 09:46:59;;;;;;;;;;;23.40;40.80;;;;;;5012480;28;19921;-60
2023/06/12 09:49:26;;;;;;;;;;;23.40;40.70;;;;;;5005053;28;19921;-60
2023/06/12 09:51:55;;;;;;;;;;;23.40;40.70;;;;;;5028091;28;19926;-61
2023/06/12 09:54:22;;;;;;;;;;;23.40;40.60;;;;;;5009173;28;20023;-62
2023/06/12 09:56:51;;;;;;;;;;;23.40;40.60;;;;;;5009107;28;19929;-60
2023/06/12 09:59:19;;;;;;;;;;;23.40;40.50;;;;;;5009393;28;19929;-60
2023/06/12 10:01:46;;;;;;;;;;;23.40;40.50;;;;;;5009440;28;19925;-60
2023/06/12 10:04:13;;;;;;;;;;;23.40;40.50;;;;;;5010512;28;19921;-61
2023/06/12 10:06:40;;;;;;;;;;;23.40;40.40;;;;;;5008981;28;19922;-61
2023/06/12 10:09:08;;;;;;;;;;;23.40;40.30;;;;;;5006863;28;20304;-62
2023/06/12 10:11:36;;;;;;;;;;;23.40;40.20;;;;;;5002017;28;19922;-61
2023/06/12 10:14:03;;;;;;;;;;;23.40;40.20;;;;;;5010460;28;20394;-60
2023/06/12 10:16:30;;;;;;;;;;;23.40;40.10;;;;;;5013867;28;19929;-60
2023/06/12 10:18:57;;;;;;;;;;;23.40;40.00;;;;;;5011726;28;19937;-61
2023/06/12 10:21:24;;;;;;;;;;;23.40;40.00;;;;;;5003460;28;19922;-61
2023/06/12 10:23:51;;;;;;;;;;;23.40;40.00;;;;;;5007508;28;19976;-60
2023/06/12 10:26:19;;;;;;;;;;;23.40;39.90;;;;;;5006959;28;19930;-61
2023/06/12 10:28:46;;;;;;;;;;;23.40;39.90;;;;;;5007699;28;20439;-64
2023/06/12 10:31:13;;;;;;;;;;;23.40;39.90;;;;;;5011231;28;19922;-58
2023/06/12 10:33:49;;;;;;;;;;;23.40;39.80;;;;;;5001695;28;19927;-57
2023/06/12 10:36:17;;;;;;;;;;;23.40;39.80;;;;;;5012910;28;19940;-62
2023/06/12 10:38:47;;;;;;;;;;;23.40;39.80;;;;;;5010099;28;20032;-62
2023/06/12 10:41:13;;;;;;;;;;;23.40;39.80;;;;;;5012256;28;19925;-63
2023/06/12 10:43:42;;;;;;;;;;;23.40;39.70;;;;;;5010985;28;19964;-63
2023/06/12 10:46:11;;;;;;;;;;;23.40;39.10;;;;;;5009197;28;19929;-62
2023/06/12 10:48:45;;;;;;;;;;;23.40;38.90;;;;;;5012858;28;19921;-63
2023/06/12 10:51:12;;;;;;;;;;;23.50;38.00;;;;;;5005411;28;20155;-61
2023/06/12 10:53:39;;;;;;;;;;;23.50;37.00;;;;;;5005938;28;19929;-61
2023/06/12 10:56:07;;;;;;;;;;;23.50;37.00;;;;;;5004113;28;20008;-61
2023/06/12 10:58:37;;;;;;;;;;;23.50;36.70;;;;;;5012362;28;20860;-61
2023/06/12 11:01:08;;;;;;;;;;;23.50;36.40;;;;;;5006682;28;19928;-61
2023/06/12 11:03:37;;;;;;;;;;;23.50;36.50;;;;;;5013889;28;20012;-60
2023/06/12 11:06:08;;;;;;;;;;;23.50;35.60;;;;;;5025987;28;19932;-59
2023/06/12 11:08:36;;;;;;;;;;;23.50;35.10;;;;;;5013605;28;19928;-61
2023/06/12 11:11:06;;;;;;;;;;;23.50;35.40;;;;;;5011256;28;19925;-61
2023/06/12 11:13:33;;;;;;;;;;;23.60;36.10;;;;;;5011695;28;20319;-62
2023/06/12 11:15:59;;;;;;;;;;;23.50;36.40;;;;;;5004156;28;19992;-61
2023/06/12 11:18:28;;;;;;;;;;;23.50;36.50;;;;;;5012365;28;19925;-60
2023/06/12 11:20:55;;;;;;;;;;;23.50;36.70;;;;;;5021642;28;19945;-59
2023/06/12 11:23:22;;;;;;;;;;;23.50;36.80;;;;;;5012326;28;19921;-61
2023/06/12 11:25:49;;;;;;;;;;;23.50;37.00;;;;;;5005028;28;19933;-61
2023/06/12 11:28:16;;;;;;;;;;;23.50;37.00;;;;;;5006962;28;20270;-62
2023/06/12 11:30:46;;;;;;;;;;;23.60;37.20;;;;;;5016260;28;19925;-61
2023/06/12 11:33:13;;;;;;;;;;;23.50;37.20;;;;;;5012407;28;19929;-61
2023/06/12 11:35:42;;;;;;;;;;;23.60;37.30;;;;;;5009743;28;20020;-61
2023/06/12 11:38:09;;;;;;;;;;;23.60;37.30;;;;;;5013409;28;19975;-61
2023/06/12 11:40:36;;;;;;;;;;;23.60;37.30;;;;;;5033208;28;20308;-60
2023/06/12 11:43:02;;;;;;;;;;;23.60;37.30;;;;;;5005512;28;19926;-60
2023/06/12 11:45:30;;;;;;;;;;;23.60;37.30;;;;;;5018867;28;19926;-63
2023/06/12 11:47:57;;;;;;;;;;;23.60;37.30;;;;;;5020871;28;20398;-60
2023/06/12 11:50:23;;;;;;;;;;;23.60;37.20;;;;;;5003073;28;20041;-62
2023/06/12 11:52:52;;;;;;;;;;;23.60;37.20;;;;;;5009127;28;19921;-60
2023/06/12 11:55:18;;;;;;;;;;;23.60;37.20;;;;;;5013633;28;19949;-61
2023/06/12 11:57:46;;;;;;;;;;;23.60;37.20;;;;;;5016669;28;19976;-61
2023/06/12 12:00:14;;;;;;;;;;;23.60;37.20;;;;;;5000605;28;19933;-60
2023/06/12 12:02:41;;;;;;;;;;;23.60;37.10;;;;;;5015289;28;19921;-62
2023/06/12 12:05:09;;;;;;;;;;;23.60;37.00;;;;;;5007232;28;19922;-62
2023/06/12 12:07:38;;;;;;;;;;;23.60;37.00;;;;;;5012639;28;19928;-62
2023/06/12 12:10:07;;;;;;;;;;;23.60;36.90;;;;;;5008258;28;19942;-62
2023/06/12 12:12:52;;;;;;;;;;;23.60;36.90;;;;;;5014280;28;19925;-65
2023/06/12 12:15:20;;;;;;;;;;;23.60;36.30;;;;;;5013364;28;19928;-61
2023/06/12 12:17:47;;;;;;;;;;;23.60;36.20;;;;;;5019966;28;19933;-61
2023/06/12 12:20:14;;;;;;;;;;;23.60;36.20;;;;;;5006928;28;19930;-60
2023/06/12 12:22:41;;;;;;;;;;;23.60;36.10;;;;;;5020783;28;19929;-62
2023/06/12 12:25:11;;;;;;;;;;;23.60;36.00;;;;;;5005454;28;19943;-60
2023/06/12 12:27:39;;;;;;;;;;;23.60;36.00;;;;;;5010666;28;19929;-60
2023/06/12 12:30:06;;;;;;;;;;;23.60;36.00;;;;;;5003801;28;19988;-58
2023/06/12 12:32:33;;;;;;;;;;;23.60;36.00;;;;;;5013655;28;19953;-62
2023/06/12 12:34:59;;;;;;;;;;;23.60;35.90;;;;;;5008159;28;19925;-61
2023/06/12 12:37:26;;;;;;;;;;;23.60;35.90;;;;;;5012076;28;19932;-60
2023/06/12 12:39:53;;;;;;;;;;;23.60;36.00;;;;;;5028027;28;19925;-62
2023/06/12 12:42:21;;;;;;;;;;;23.60;36.10;;;;;;5017000;28;19925;-58
2023/06/12 12:44:47;;;;;;;;;;;23.60;35.60;;;;;;5016860;28;19925;-60
2023/06/12 12:47:14;;;;;;;;;;;23.60;35.80;;;;;;5040721;28;19925;-60
2023/06/12 12:49:41;;;;;;;;;;;23.60;35.80;;;;;;5016163;28;19999;-61
2023/06/12 12:52:08;;;;;;;;;;;23.60;35.80;;;;;;5015712;28;19921;-59
2023/06/12 12:54:35;;;;;;;;;;;23.60;35.70;;;;;;5012957;28;20253;-61
2023/06/12 12:57:02;;;;;;;;;;;23.60;35.70;;;;;;5020265;28;19929;-58
2023/06/12 12:59:30;;;;;;;;;;;23.60;35.70;;;;;;5004607;28;19926;-61
2023/06/12 13:01:57;;;;;;;;;;;23.60;35.60;;;;;;5012969;28;19967;-61
2023/06/12 13:04:24;;;;;;;;;;;23.60;35.60;;;;;;5010676;28;19926;-63
2023/06/12 13:06:51;;;;;;;;;;;23.60;35.50;;;;;;5002927;28;19948;-63
2023/06/12 13:09:18;;;;;;;;;;;23.60;35.50;;;;;;5010112;28;19976;-62
2023/06/12 13:11:45;;;;;;;;;;;23.60;35.50;;;;;;5013501;28;19925;-63
2023/06/12 13:14:12;;;;;;;;;;;23.60;35.40;;;;;;5012252;28;20267;-61
2023/06/12 13:16:40;;;;;;;;;;;23.60;36.00;;;;;;5014545;28;19927;-60
2023/06/12 13:19:07;;;;;;;;;;;23.60;35.50;;;;;;5025335;28;19926;-59
2023/06/12 13:21:34;;;;;;;;;;;23.60;35.60;;;;;;5009896;28;19929;-60
2023/06/12 13:24:01;;;;;;;;;;;23.60;35.70;;;;;;5009885;28;19979;-61
2023/06/12 13:26:27;;;;;;;;;;;23.60;35.70;;;;;;5011605;28;19928;-61
2023/06/12 13:28:54;;;;;;;;;;;23.60;35.70;;;;;;5029109;28;19991;-60
2023/06/12 13:31:21;;;;;;;;;;;23.60;35.70;;;;;;5016133;28;20299;-62
2023/06/12 13:33:49;;;;;;;;;;;23.60;35.60;;;;;;5012461;28;20404;-61
2023/06/12 13:36:16;;;;;;;;;;;23.60;35.60;;;;;;5011312;28;19929;-62
2023/06/12 13:38:43;;;;;;;;;;;23.60;35.70;;;;;;5009873;28;19921;-59
2023/06/12 13:41:09;;;;;;;;;;;23.60;35.70;;;;;;5010651;28;20731;-63
2023/06/12 13:43:36;;;;;;;;;;;23.60;35.70;;;;;;5007909;28;19926;-62
2023/06/12 13:46:03;;;;;;;;;;;23.60;35.70;;;;;;5003537;28;19921;-60
2023/06/12 13:48:30;;;;;;;;;;;23.60;35.70;;;;;;5014391;28;19959;-61
2023/06/12 13:50:59;;;;;;;;;;;23.60;35.50;;;;;;5009744;28;19934;-61
2023/06/12 13:53:26;;;;;;;;;;;23.60;35.30;;;;;;5014813;28;19922;-61
2023/06/12 13:55:53;;;;;;;;;;;23.70;35.00;;;;;;5015243;28;20312;-61
2023/06/12 13:58:20;;;;;;;;;;;23.70;34.80;;;;;;5012689;28;19932;-61
2023/06/12 14:00:46;;;;;;;;;;;23.70;34.60;;;;;;5010375;28;20231;-61
2023/06/12 14:03:14;;;;;;;;;;;23.70;34.40;;;;;;5012227;28;19960;-60
2023/06/12 14:05:41;;;;;;;;;;;23.70;34.40;;;;;;5007437;28;20403;-60
2023/06/12 14:08:09;;;;;;;;;;;23.70;34.30;;;;;;5011527;28;19921;-62
2023/06/12 14:10:37;;;;;;;;;;;23.70;34.20;;;;;;5010041;28;19928;-61
2023/06/12 14:13:04;;;;;;;;;;;23.70;34.20;;;;;;5005579;28;19929;-59
2023/06/12 14:15:31;;;;;;;;;;;23.70;34.10;;;;;;5011607;28;19929;-59
2023/06/12 14:18:02;;;;;;;;;;;23.70;34.10;;;;;;5014048;28;20186;-60